sensor_id;sensor_type;location;lat;lon;timestamp;P1;durP1;ratioP1;P2;durP2;ratioP2
25932;SDS011;13731;51.166;4.474;2022-07-29T00:00:46;18.70;;;17.70;;
25932;SDS011;13731;51.166;4.474;2022-07-29T00:03:12;19.70;;;18.60;;
25932;SDS011;13731;51.166;4.474;2022-07-29T00:05:39;19.88;;;18.42;;
25932;SDS011;13731;51.166;4.474;2022-07-29T00:08:06;22.67;;;21.42;;
25932;SDS011;13731;51.166;4.474;2022-07-29T00:10:32;23.35;;;20.45;;
25932;SDS011;13731;51.166;4.474;2022-07-29T00:12:58;21.00;;;19.90;;
25932;SDS011;13731;51.166;4.474;2022-07-29T00:15:24;21.45;;;20.25;;
25932;SDS011;13731;51.166;4.474;2022-07-29T00:17:50;21.35;;;20.25;;
25932;SDS011;13731;51.166;4.474;2022-07-29T00:20:16;21.77;;;20.67;;
25932;SDS011;13731;51.166;4.474;2022-07-29T00:22:42;23.05;;;21.75;;
25932;SDS011;13731;51.166;4.474;2022-07-29T00:25:08;24.10;;;22.80;;
25932;SDS011;13731;51.166;4.474;2022-07-29T00:27:37;23.15;;;21.85;;
25932;SDS011;13731;51.166;4.474;2022-07-29T00:30:04;23.92;;;22.52;;
25932;SDS011;13731;51.166;4.474;2022-07-29T00:32:30;24.25;;;22.85;;
25932;SDS011;13731;51.166;4.474;2022-07-29T00:34:56;26.50;;;25.15;;
25932;SDS011;13731;51.166;4.474;2022-07-29T00:37:41;24.20;;;22.80;;
25932;SDS011;13731;51.166;4.474;2022-07-29T00:40:07;26.65;;;24.98;;
25932;SDS011;13731;51.166;4.474;2022-07-29T00:42:46;26.38;;;24.90;;
25932;SDS011;13731;51.166;4.474;2022-07-29T00:45:14;26.98;;;25.38;;
25932;SDS011;13731;51.166;4.474;2022-07-29T00:47:40;23.70;;;22.58;;
25932;SDS011;13731;51.166;4.474;2022-07-29T00:50:07;23.85;;;22.63;;
25932;SDS011;13731;51.166;4.474;2022-07-29T00:52:38;25.13;;;23.60;;
25932;SDS011;13731;51.166;4.474;2022-07-29T00:55:05;28.25;;;26.70;;
25932;SDS011;13731;51.166;4.474;2022-07-29T00:57:33;22.77;;;21.70;;
25932;SDS011;13731;51.166;4.474;2022-07-29T01:00:00;24.00;;;22.50;;
25932;SDS011;13731;51.166;4.474;2022-07-29T01:02:26;23.33;;;21.98;;
25932;SDS011;13731;51.166;4.474;2022-07-29T01:04:52;24.02;;;22.52;;
25932;SDS011;13731;51.166;4.474;2022-07-29T01:07:18;25.02;;;23.75;;
25932;SDS011;13731;51.166;4.474;2022-07-29T01:09:44;26.33;;;25.00;;
25932;SDS011;13731;51.166;4.474;2022-07-29T01:12:13;25.67;;;24.17;;
25932;SDS011;13731;51.166;4.474;2022-07-29T01:14:42;23.42;;;22.33;;
25932;SDS011;13731;51.166;4.474;2022-07-29T01:17:20;25.27;;;23.90;;
25932;SDS011;13731;51.166;4.474;2022-07-29T01:25:28;24.95;;;23.65;;
25932;SDS011;13731;51.166;4.474;2022-07-29T01:30:57;24.45;;;22.83;;
25932;SDS011;13731;51.166;4.474;2022-07-29T01:33:25;26.40;;;25.15;;
25932;SDS011;13731;51.166;4.474;2022-07-29T01:36:13;25.63;;;23.85;;
25932;SDS011;13731;51.166;4.474;2022-07-29T01:38:42;26.35;;;24.73;;
25932;SDS011;13731;51.166;4.474;2022-07-29T01:41:16;26.55;;;25.02;;
25932;SDS011;13731;51.166;4.474;2022-07-29T01:43:49;25.80;;;24.33;;
25932;SDS011;13731;51.166;4.474;2022-07-29T01:46:22;24.80;;;23.55;;
25932;SDS011;13731;51.166;4.474;2022-07-29T01:48:57;27.00;;;25.38;;
25932;SDS011;13731;51.166;4.474;2022-07-29T01:51:31;24.52;;;23.02;;
25932;SDS011;13731;51.166;4.474;2022-07-29T01:56:57;26.90;;;25.40;;
25932;SDS011;13731;51.166;4.474;2022-07-29T01:59:25;27.98;;;26.70;;
25932;SDS011;13731;51.166;4.474;2022-07-29T02:01:53;29.17;;;27.83;;
25932;SDS011;13731;51.166;4.474;2022-07-29T02:04:22;29.33;;;27.73;;
25932;SDS011;13731;51.166;4.474;2022-07-29T02:06:49;28.50;;;27.10;;
25932;SDS011;13731;51.166;4.474;2022-07-29T02:09:17;28.27;;;26.77;;
25932;SDS011;13731;51.166;4.474;2022-07-29T02:11:47;27.55;;;26.10;;
25932;SDS011;13731;51.166;4.474;2022-07-29T02:14:17;27.65;;;26.45;;
25932;SDS011;13731;51.166;4.474;2022-07-29T02:16:45;29.45;;;27.92;;
25932;SDS011;13731;51.166;4.474;2022-07-29T02:19:13;30.02;;;28.50;;
25932;SDS011;13731;51.166;4.474;2022-07-29T02:21:41;30.88;;;29.05;;
25932;SDS011;13731;51.166;4.474;2022-07-29T02:24:09;29.27;;;27.75;;
25932;SDS011;13731;51.166;4.474;2022-07-29T02:26:36;27.65;;;26.40;;
25932;SDS011;13731;51.166;4.474;2022-07-29T02:29:05;25.85;;;24.25;;
25932;SDS011;13731;51.166;4.474;2022-07-29T02:31:33;24.77;;;23.50;;
25932;SDS011;13731;51.166;4.474;2022-07-29T02:34:05;25.05;;;23.52;;
25932;SDS011;13731;51.166;4.474;2022-07-29T02:36:33;25.20;;;24.02;;
25932;SDS011;13731;51.166;4.474;2022-07-29T02:39:00;28.27;;;26.73;;
25932;SDS011;13731;51.166;4.474;2022-07-29T02:41:40;26.45;;;25.08;;
25932;SDS011;13731;51.166;4.474;2022-07-29T02:44:11;24.13;;;22.75;;
25932;SDS011;13731;51.166;4.474;2022-07-29T02:49:15;18.05;;;16.58;;
25932;SDS011;13731;51.166;4.474;2022-07-29T02:51:55;19.33;;;18.23;;
25932;SDS011;13731;51.166;4.474;2022-07-29T02:54:45;21.13;;;19.90;;
25932;SDS011;13731;51.166;4.474;2022-07-29T02:57:41;21.15;;;20.13;;
25932;SDS011;13731;51.166;4.474;2022-07-29T03:00:14;20.17;;;19.17;;
25932;SDS011;13731;51.166;4.474;2022-07-29T03:02:43;24.20;;;22.55;;
25932;SDS011;13731;51.166;4.474;2022-07-29T03:05:18;24.23;;;23.00;;
25932;SDS011;13731;51.166;4.474;2022-07-29T03:07:47;25.80;;;24.58;;
25932;SDS011;13731;51.166;4.474;2022-07-29T03:10:22;26.90;;;25.55;;
25932;SDS011;13731;51.166;4.474;2022-07-29T03:12:50;28.02;;;26.45;;
25932;SDS011;13731;51.166;4.474;2022-07-29T03:15:16;28.88;;;27.35;;
25932;SDS011;13731;51.166;4.474;2022-07-29T03:17:46;26.35;;;24.80;;
25932;SDS011;13731;51.166;4.474;2022-07-29T03:20:13;27.35;;;25.73;;
25932;SDS011;13731;51.166;4.474;2022-07-29T03:22:40;26.98;;;25.42;;
25932;SDS011;13731;51.166;4.474;2022-07-29T03:27:38;22.83;;;21.63;;
25932;SDS011;13731;51.166;4.474;2022-07-29T03:30:05;22.60;;;21.50;;
25932;SDS011;13731;51.166;4.474;2022-07-29T03:32:32;24.35;;;23.27;;
25932;SDS011;13731;51.166;4.474;2022-07-29T03:34:58;23.40;;;22.13;;
25932;SDS011;13731;51.166;4.474;2022-07-29T03:37:24;23.95;;;22.65;;
25932;SDS011;13731;51.166;4.474;2022-07-29T03:39:50;26.05;;;24.75;;
25932;SDS011;13731;51.166;4.474;2022-07-29T03:42:19;24.95;;;23.55;;
25932;SDS011;13731;51.166;4.474;2022-07-29T03:44:48;26.13;;;24.83;;
25932;SDS011;13731;51.166;4.474;2022-07-29T03:47:16;27.02;;;25.77;;
25932;SDS011;13731;51.166;4.474;2022-07-29T03:49:46;29.10;;;27.50;;
25932;SDS011;13731;51.166;4.474;2022-07-29T03:52:16;29.63;;;27.85;;
25932;SDS011;13731;51.166;4.474;2022-07-29T03:54:42;30.38;;;28.92;;
25932;SDS011;13731;51.166;4.474;2022-07-29T03:57:08;32.83;;;30.95;;
25932;SDS011;13731;51.166;4.474;2022-07-29T03:59:36;34.50;;;32.55;;
25932;SDS011;13731;51.166;4.474;2022-07-29T04:02:03;32.65;;;30.95;;
25932;SDS011;13731;51.166;4.474;2022-07-29T04:04:34;31.80;;;30.25;;
25932;SDS011;13731;51.166;4.474;2022-07-29T04:09:26;14.82;;;13.70;;
25932;SDS011;13731;51.166;4.474;2022-07-29T04:11:52;24.55;;;23.27;;
25932;SDS011;13731;51.166;4.474;2022-07-29T04:14:18;26.30;;;24.98;;
25932;SDS011;13731;51.166;4.474;2022-07-29T04:16:44;26.48;;;24.95;;
25932;SDS011;13731;51.166;4.474;2022-07-29T04:19:10;39.58;;;37.08;;
25932;SDS011;13731;51.166;4.474;2022-07-29T04:21:39;28.50;;;27.15;;
25932;SDS011;13731;51.166;4.474;2022-07-29T04:24:06;29.80;;;28.30;;
25932;SDS011;13731;51.166;4.474;2022-07-29T04:26:33;31.88;;;30.15;;
25932;SDS011;13731;51.166;4.474;2022-07-29T04:29:00;37.13;;;35.33;;
25932;SDS011;13731;51.166;4.474;2022-07-29T04:31:26;33.13;;;31.60;;
25932;SDS011;13731;51.166;4.474;2022-07-29T04:33:52;34.63;;;33.00;;
25932;SDS011;13731;51.166;4.474;2022-07-29T04:36:18;32.65;;;30.85;;
25932;SDS011;13731;51.166;4.474;2022-07-29T04:38:44;35.88;;;34.00;;
25932;SDS011;13731;51.166;4.474;2022-07-29T04:41:09;33.00;;;31.50;;
25932;SDS011;13731;51.166;4.474;2022-07-29T04:43:35;32.85;;;31.27;;
25932;SDS011;13731;51.166;4.474;2022-07-29T04:46:02;33.97;;;32.30;;
25932;SDS011;13731;51.166;4.474;2022-07-29T04:48:29;33.60;;;31.70;;
25932;SDS011;13731;51.166;4.474;2022-07-29T04:50:55;42.00;;;39.80;;
25932;SDS011;13731;51.166;4.474;2022-07-29T04:53:21;33.10;;;31.23;;
25932;SDS011;13731;51.166;4.474;2022-07-29T04:55:47;35.55;;;33.75;;
25932;SDS011;13731;51.166;4.474;2022-07-29T04:58:13;33.58;;;31.92;;
25932;SDS011;13731;51.166;4.474;2022-07-29T05:00:39;92.75;;;88.43;;
25932;SDS011;13731;51.166;4.474;2022-07-29T05:03:05;25.80;;;24.55;;
25932;SDS011;13731;51.166;4.474;2022-07-29T05:05:31;25.25;;;23.50;;
25932;SDS011;13731;51.166;4.474;2022-07-29T05:07:57;23.10;;;21.70;;
25932;SDS011;13731;51.166;4.474;2022-07-29T05:10:23;22.45;;;21.23;;
25932;SDS011;13731;51.166;4.474;2022-07-29T05:12:49;22.05;;;20.42;;
25932;SDS011;13731;51.166;4.474;2022-07-29T05:15:15;20.65;;;19.58;;
25932;SDS011;13731;51.166;4.474;2022-07-29T05:17:43;31.63;;;29.98;;
25932;SDS011;13731;51.166;4.474;2022-07-29T05:20:09;20.27;;;18.88;;
25932;SDS011;13731;51.166;4.474;2022-07-29T05:22:35;21.17;;;20.02;;
25932;SDS011;13731;51.166;4.474;2022-07-29T05:25:01;20.45;;;19.25;;
25932;SDS011;13731;51.166;4.474;2022-07-29T05:27:27;19.85;;;18.77;;
25932;SDS011;13731;51.166;4.474;2022-07-29T05:29:53;22.42;;;20.90;;
25932;SDS011;13731;51.166;4.474;2022-07-29T05:32:19;130.02;;;123.22;;
25932;SDS011;13731;51.166;4.474;2022-07-29T05:34:44;24.33;;;22.88;;
25932;SDS011;13731;51.166;4.474;2022-07-29T05:37:10;24.38;;;22.83;;
25932;SDS011;13731;51.166;4.474;2022-07-29T05:39:38;25.83;;;24.45;;
25932;SDS011;13731;51.166;4.474;2022-07-29T05:42:10;26.13;;;24.58;;
25932;SDS011;13731;51.166;4.474;2022-07-29T05:44:37;26.75;;;25.30;;
25932;SDS011;13731;51.166;4.474;2022-07-29T05:47:03;40.65;;;38.67;;
25932;SDS011;13731;51.166;4.474;2022-07-29T05:49:29;26.33;;;25.02;;
25932;SDS011;13731;51.166;4.474;2022-07-29T05:51:55;21.83;;;20.60;;
25932;SDS011;13731;51.166;4.474;2022-07-29T05:54:21;20.73;;;19.48;;
25932;SDS011;13731;51.166;4.474;2022-07-29T05:56:46;20.58;;;19.00;;
25932;SDS011;13731;51.166;4.474;2022-07-29T05:59:15;18.83;;;17.73;;
25932;SDS011;13731;51.166;4.474;2022-07-29T06:01:40;20.73;;;19.60;;
25932;SDS011;13731;51.166;4.474;2022-07-29T06:04:06;20.65;;;19.33;;
25932;SDS011;13731;51.166;4.474;2022-07-29T06:06:33;20.45;;;19.20;;
25932;SDS011;13731;51.166;4.474;2022-07-29T06:09:00;20.25;;;19.10;;
25932;SDS011;13731;51.166;4.474;2022-07-29T06:11:27;20.27;;;18.98;;
25932;SDS011;13731;51.166;4.474;2022-07-29T06:13:52;19.80;;;18.58;;
25932;SDS011;13731;51.166;4.474;2022-07-29T06:16:19;19.73;;;18.63;;
25932;SDS011;13731;51.166;4.474;2022-07-29T06:18:45;20.27;;;19.10;;
25932;SDS011;13731;51.166;4.474;2022-07-29T06:21:11;19.95;;;18.70;;
25932;SDS011;13731;51.166;4.474;2022-07-29T06:23:37;17.83;;;16.95;;
25932;SDS011;13731;51.166;4.474;2022-07-29T06:26:04;19.83;;;18.65;;
25932;SDS011;13731;51.166;4.474;2022-07-29T06:28:30;18.67;;;17.67;;
25932;SDS011;13731;51.166;4.474;2022-07-29T06:30:57;21.10;;;19.52;;
25932;SDS011;13731;51.166;4.474;2022-07-29T06:33:23;31.80;;;30.10;;
25932;SDS011;13731;51.166;4.474;2022-07-29T06:35:49;21.40;;;20.08;;
25932;SDS011;13731;51.166;4.474;2022-07-29T06:38:15;20.42;;;18.92;;
25932;SDS011;13731;51.166;4.474;2022-07-29T06:40:42;18.98;;;18.00;;
25932;SDS011;13731;51.166;4.474;2022-07-29T06:43:34;25.77;;;24.42;;
25932;SDS011;13731;51.166;4.474;2022-07-29T06:46:03;19.23;;;17.80;;
25932;SDS011;13731;51.166;4.474;2022-07-29T06:48:34;21.17;;;20.08;;
25932;SDS011;13731;51.166;4.474;2022-07-29T06:51:01;22.02;;;20.92;;
25932;SDS011;13731;51.166;4.474;2022-07-29T06:53:29;18.58;;;17.38;;
25932;SDS011;13731;51.166;4.474;2022-07-29T06:55:55;23.10;;;21.83;;
25932;SDS011;13731;51.166;4.474;2022-07-29T06:58:23;20.55;;;19.27;;
25932;SDS011;13731;51.166;4.474;2022-07-29T07:00:55;18.80;;;17.70;;
25932;SDS011;13731;51.166;4.474;2022-07-29T07:03:23;18.33;;;17.38;;
25932;SDS011;13731;51.166;4.474;2022-07-29T07:05:49;19.92;;;18.20;;
25932;SDS011;13731;51.166;4.474;2022-07-29T07:08:17;18.08;;;16.80;;
25932;SDS011;13731;51.166;4.474;2022-07-29T07:10:44;55.40;;;52.33;;
25932;SDS011;13731;51.166;4.474;2022-07-29T07:13:10;20.90;;;19.35;;
25932;SDS011;13731;51.166;4.474;2022-07-29T07:15:36;20.75;;;19.50;;
25932;SDS011;13731;51.166;4.474;2022-07-29T07:18:03;19.95;;;18.70;;
25932;SDS011;13731;51.166;4.474;2022-07-29T07:20:31;20.85;;;19.63;;
25932;SDS011;13731;51.166;4.474;2022-07-29T07:22:58;22.08;;;20.88;;
25932;SDS011;13731;51.166;4.474;2022-07-29T07:25:23;20.30;;;18.55;;
25932;SDS011;13731;51.166;4.474;2022-07-29T07:27:49;20.63;;;19.33;;
25932;SDS011;13731;51.166;4.474;2022-07-29T07:30:15;21.02;;;19.75;;
25932;SDS011;13731;51.166;4.474;2022-07-29T07:32:41;24.17;;;22.95;;
25932;SDS011;13731;51.166;4.474;2022-07-29T07:35:07;21.45;;;19.73;;
25932;SDS011;13731;51.166;4.474;2022-07-29T07:37:34;20.05;;;19.00;;
25932;SDS011;13731;51.166;4.474;2022-07-29T07:40:00;24.20;;;22.85;;
25932;SDS011;13731;51.166;4.474;2022-07-29T07:42:27;30.65;;;28.60;;
25932;SDS011;13731;51.166;4.474;2022-07-29T07:44:53;21.65;;;20.17;;
25932;SDS011;13731;51.166;4.474;2022-07-29T07:47:18;25.50;;;23.90;;
25932;SDS011;13731;51.166;4.474;2022-07-29T07:49:45;22.08;;;20.27;;
25932;SDS011;13731;51.166;4.474;2022-07-29T07:52:12;24.65;;;23.02;;
25932;SDS011;13731;51.166;4.474;2022-07-29T07:57:08;35.40;;;33.45;;
25932;SDS011;13731;51.166;4.474;2022-07-29T07:59:34;31.65;;;29.80;;
25932;SDS011;13731;51.166;4.474;2022-07-29T08:02:00;50.25;;;47.40;;
25932;SDS011;13731;51.166;4.474;2022-07-29T08:04:27;85.60;;;81.45;;
25932;SDS011;13731;51.166;4.474;2022-07-29T08:06:53;69.90;;;66.38;;
25932;SDS011;13731;51.166;4.474;2022-07-29T08:09:20;44.55;;;42.05;;
25932;SDS011;13731;51.166;4.474;2022-07-29T08:11:46;68.03;;;64.75;;
25932;SDS011;13731;51.166;4.474;2022-07-29T08:14:12;49.25;;;46.80;;
25932;SDS011;13731;51.166;4.474;2022-07-29T08:16:39;59.10;;;55.78;;
25932;SDS011;13731;51.166;4.474;2022-07-29T08:19:06;43.67;;;41.60;;
25932;SDS011;13731;51.166;4.474;2022-07-29T08:21:32;55.13;;;52.33;;
25932;SDS011;13731;51.166;4.474;2022-07-29T08:23:58;46.25;;;43.75;;
25932;SDS011;13731;51.166;4.474;2022-07-29T08:26:42;46.25;;;43.72;;
25932;SDS011;13731;51.166;4.474;2022-07-29T08:29:09;44.25;;;42.03;;
25932;SDS011;13731;51.166;4.474;2022-07-29T08:31:36;44.30;;;41.80;;
25932;SDS011;13731;51.166;4.474;2022-07-29T08:34:03;46.70;;;44.25;;
25932;SDS011;13731;51.166;4.474;2022-07-29T08:36:30;45.67;;;43.33;;
25932;SDS011;13731;51.166;4.474;2022-07-29T08:38:56;46.90;;;44.63;;
25932;SDS011;13731;51.166;4.474;2022-07-29T08:41:23;49.10;;;46.63;;
25932;SDS011;13731;51.166;4.474;2022-07-29T08:43:49;49.33;;;47.03;;
25932;SDS011;13731;51.166;4.474;2022-07-29T08:46:16;41.72;;;39.47;;
25932;SDS011;13731;51.166;4.474;2022-07-29T08:48:42;36.83;;;34.92;;
25932;SDS011;13731;51.166;4.474;2022-07-29T08:51:08;38.08;;;36.33;;
25932;SDS011;13731;51.166;4.474;2022-07-29T08:53:40;35.45;;;33.30;;
25932;SDS011;13731;51.166;4.474;2022-07-29T08:56:10;41.67;;;39.60;;
25932;SDS011;13731;51.166;4.474;2022-07-29T08:58:38;44.53;;;42.35;;
25932;SDS011;13731;51.166;4.474;2022-07-29T09:01:08;34.20;;;32.53;;
25932;SDS011;13731;51.166;4.474;2022-07-29T09:06:03;45.63;;;43.33;;
25932;SDS011;13731;51.166;4.474;2022-07-29T09:08:33;40.10;;;38.17;;
25932;SDS011;13731;51.166;4.474;2022-07-29T09:11:03;41.88;;;39.63;;
25932;SDS011;13731;51.166;4.474;2022-07-29T09:13:28;42.83;;;40.25;;
25932;SDS011;13731;51.166;4.474;2022-07-29T09:15:54;41.83;;;39.70;;
25932;SDS011;13731;51.166;4.474;2022-07-29T09:21:05;32.65;;;30.98;;
25932;SDS011;13731;51.166;4.474;2022-07-29T09:26:28;33.20;;;31.60;;
25932;SDS011;13731;51.166;4.474;2022-07-29T09:28:56;31.63;;;29.77;;
25932;SDS011;13731;51.166;4.474;2022-07-29T09:31:33;47.55;;;45.20;;
25932;SDS011;13731;51.166;4.474;2022-07-29T09:34:00;40.88;;;38.70;;
25932;SDS011;13731;51.166;4.474;2022-07-29T09:36:26;38.75;;;36.75;;
25932;SDS011;13731;51.166;4.474;2022-07-29T09:39:01;34.30;;;32.55;;
25932;SDS011;13731;51.166;4.474;2022-07-29T09:41:28;27.95;;;26.48;;
25932;SDS011;13731;51.166;4.474;2022-07-29T09:43:57;33.25;;;31.58;;
25932;SDS011;13731;51.166;4.474;2022-07-29T09:46:24;27.52;;;25.98;;
25932;SDS011;13731;51.166;4.474;2022-07-29T09:49:07;34.15;;;32.47;;
25932;SDS011;13731;51.166;4.474;2022-07-29T09:51:34;31.88;;;30.35;;
25932;SDS011;13731;51.166;4.474;2022-07-29T09:54:00;29.98;;;28.35;;
25932;SDS011;13731;51.166;4.474;2022-07-29T09:56:39;25.38;;;24.02;;
25932;SDS011;13731;51.166;4.474;2022-07-29T09:59:07;23.08;;;21.73;;
25932;SDS011;13731;51.166;4.474;2022-07-29T10:01:33;21.70;;;20.50;;
25932;SDS011;13731;51.166;4.474;2022-07-29T10:04:01;28.77;;;27.15;;
25932;SDS011;13731;51.166;4.474;2022-07-29T10:06:27;28.58;;;26.85;;
25932;SDS011;13731;51.166;4.474;2022-07-29T10:08:53;30.13;;;28.67;;
25932;SDS011;13731;51.166;4.474;2022-07-29T10:11:20;26.35;;;25.00;;
25932;SDS011;13731;51.166;4.474;2022-07-29T10:13:46;30.70;;;29.20;;
25932;SDS011;13731;51.166;4.474;2022-07-29T10:16:13;28.42;;;26.75;;
25932;SDS011;13731;51.166;4.474;2022-07-29T10:18:41;23.83;;;22.67;;
25932;SDS011;13731;51.166;4.474;2022-07-29T10:21:08;21.58;;;20.33;;
25932;SDS011;13731;51.166;4.474;2022-07-29T10:23:35;22.95;;;21.60;;
25932;SDS011;13731;51.166;4.474;2022-07-29T10:26:02;18.77;;;17.80;;
25932;SDS011;13731;51.166;4.474;2022-07-29T10:28:32;8.98;;;8.38;;
25932;SDS011;13731;51.166;4.474;2022-07-29T10:36:37;15.25;;;14.43;;
25932;SDS011;13731;51.166;4.474;2022-07-29T10:39:27;13.48;;;12.13;;
25932;SDS011;13731;51.166;4.474;2022-07-29T10:42:02;10.68;;;9.88;;
25932;SDS011;13731;51.166;4.474;2022-07-29T10:44:32;9.52;;;9.13;;
25932;SDS011;13731;51.166;4.474;2022-07-29T10:46:59;9.20;;;8.70;;
25932;SDS011;13731;51.166;4.474;2022-07-29T10:49:26;9.30;;;8.50;;
25932;SDS011;13731;51.166;4.474;2022-07-29T10:59:49;9.07;;;8.18;;
25932;SDS011;13731;51.166;4.474;2022-07-29T11:07:24;10.75;;;9.73;;
25932;SDS011;13731;51.166;4.474;2022-07-29T11:15:04;9.05;;;8.35;;
25932;SDS011;13731;51.166;4.474;2022-07-29T11:28:59;6.03;;;5.50;;
25932;SDS011;13731;51.166;4.474;2022-07-29T11:37:23;6.32;;;5.82;;
25932;SDS011;13731;51.166;4.474;2022-07-29T11:39:47;10.88;;;5.82;;
25932;SDS011;13731;51.166;4.474;2022-07-29T11:44:56;5.97;;;5.47;;
25932;SDS011;13731;51.166;4.474;2022-07-29T11:47:26;5.63;;;4.95;;
25932;SDS011;13731;51.166;4.474;2022-07-29T11:49:53;6.18;;;5.78;;
25932;SDS011;13731;51.166;4.474;2022-07-29T11:52:21;8.07;;;7.35;;
25932;SDS011;13731;51.166;4.474;2022-07-29T11:54:47;9.48;;;8.40;;
25932;SDS011;13731;51.166;4.474;2022-07-29T11:57:17;9.13;;;8.73;;
25932;SDS011;13731;51.166;4.474;2022-07-29T11:59:44;8.45;;;7.90;;
25932;SDS011;13731;51.166;4.474;2022-07-29T12:02:12;10.35;;;9.43;;
25932;SDS011;13731;51.166;4.474;2022-07-29T12:07:15;9.55;;;8.82;;
25932;SDS011;13731;51.166;4.474;2022-07-29T12:09:48;9.18;;;7.90;;
25932;SDS011;13731;51.166;4.474;2022-07-29T12:12:16;6.65;;;6.15;;
25932;SDS011;13731;51.166;4.474;2022-07-29T12:14:42;6.93;;;6.45;;
25932;SDS011;13731;51.166;4.474;2022-07-29T12:20:03;9.38;;;8.25;;
25932;SDS011;13731;51.166;4.474;2022-07-29T12:22:31;7.72;;;7.03;;
25932;SDS011;13731;51.166;4.474;2022-07-29T12:25:08;8.20;;;6.90;;
25932;SDS011;13731;51.166;4.474;2022-07-29T12:27:35;5.95;;;5.55;;
25932;SDS011;13731;51.166;4.474;2022-07-29T12:30:07;6.55;;;5.65;;
25932;SDS011;13731;51.166;4.474;2022-07-29T12:32:34;7.45;;;6.88;;
25932;SDS011;13731;51.166;4.474;2022-07-29T12:35:03;7.15;;;6.70;;
25932;SDS011;13731;51.166;4.474;2022-07-29T12:37:34;11.35;;;8.02;;
25932;SDS011;13731;51.166;4.474;2022-07-29T12:40:02;7.05;;;6.38;;
25932;SDS011;13731;51.166;4.474;2022-07-29T12:42:29;11.03;;;7.03;;
25932;SDS011;13731;51.166;4.474;2022-07-29T12:44:55;9.55;;;6.57;;
25932;SDS011;13731;51.166;4.474;2022-07-29T12:47:22;7.88;;;7.25;;
25932;SDS011;13731;51.166;4.474;2022-07-29T12:49:48;7.68;;;6.97;;
25932;SDS011;13731;51.166;4.474;2022-07-29T12:54:59;7.30;;;6.75;;
25932;SDS011;13731;51.166;4.474;2022-07-29T12:57:26;7.45;;;6.60;;
25932;SDS011;13731;51.166;4.474;2022-07-29T13:02:33;10.00;;;7.20;;
25932;SDS011;13731;51.166;4.474;2022-07-29T13:05:00;8.35;;;6.70;;
25932;SDS011;13731;51.166;4.474;2022-07-29T13:07:28;6.70;;;6.15;;
25932;SDS011;13731;51.166;4.474;2022-07-29T13:15:32;6.75;;;6.18;;
25932;SDS011;13731;51.166;4.474;2022-07-29T13:17:58;7.95;;;6.57;;
25932;SDS011;13731;51.166;4.474;2022-07-29T13:20:25;10.63;;;7.75;;
25932;SDS011;13731;51.166;4.474;2022-07-29T13:22:55;7.53;;;6.97;;
25932;SDS011;13731;51.166;4.474;2022-07-29T13:25:31;8.45;;;7.85;;
25932;SDS011;13731;51.166;4.474;2022-07-29T13:27:58;10.25;;;9.10;;
25932;SDS011;13731;51.166;4.474;2022-07-29T13:30:25;10.90;;;10.15;;
25932;SDS011;13731;51.166;4.474;2022-07-29T13:32:51;7.93;;;7.35;;
25932;SDS011;13731;51.166;4.474;2022-07-29T13:35:17;8.68;;;7.93;;
25932;SDS011;13731;51.166;4.474;2022-07-29T13:37:45;7.88;;;7.22;;
25932;SDS011;13731;51.166;4.474;2022-07-29T13:40:11;7.72;;;6.97;;
25932;SDS011;13731;51.166;4.474;2022-07-29T13:42:38;9.77;;;8.98;;
25932;SDS011;13731;51.166;4.474;2022-07-29T13:45:05;8.50;;;7.95;;
25932;SDS011;13731;51.166;4.474;2022-07-29T13:47:31;10.70;;;8.50;;
25932;SDS011;13731;51.166;4.474;2022-07-29T13:49:57;7.90;;;7.32;;
25932;SDS011;13731;51.166;4.474;2022-07-29T13:52:24;7.88;;;7.28;;
25932;SDS011;13731;51.166;4.474;2022-07-29T13:54:50;11.30;;;10.18;;
25932;SDS011;13731;51.166;4.474;2022-07-29T13:57:15;8.55;;;7.75;;
25932;SDS011;13731;51.166;4.474;2022-07-29T13:59:41;9.35;;;8.52;;
25932;SDS011;13731;51.166;4.474;2022-07-29T14:02:08;8.48;;;7.63;;
25932;SDS011;13731;51.166;4.474;2022-07-29T14:04:35;7.90;;;7.15;;
25932;SDS011;13731;51.166;4.474;2022-07-29T14:07:01;8.20;;;7.47;;
25932;SDS011;13731;51.166;4.474;2022-07-29T14:09:28;9.32;;;8.52;;
25932;SDS011;13731;51.166;4.474;2022-07-29T14:11:54;12.48;;;11.55;;
25932;SDS011;13731;51.166;4.474;2022-07-29T14:14:20;12.90;;;11.30;;
25932;SDS011;13731;51.166;4.474;2022-07-29T14:16:46;11.60;;;11.00;;
25932;SDS011;13731;51.166;4.474;2022-07-29T14:19:12;13.25;;;12.52;;
25932;SDS011;13731;51.166;4.474;2022-07-29T14:21:38;13.02;;;12.10;;
25932;SDS011;13731;51.166;4.474;2022-07-29T14:24:04;12.00;;;11.15;;
25932;SDS011;13731;51.166;4.474;2022-07-29T14:26:31;9.10;;;8.55;;
25932;SDS011;13731;51.166;4.474;2022-07-29T14:28:57;12.45;;;11.40;;
25932;SDS011;13731;51.166;4.474;2022-07-29T14:31:23;11.70;;;11.07;;
25932;SDS011;13731;51.166;4.474;2022-07-29T14:33:48;12.70;;;11.75;;
25932;SDS011;13731;51.166;4.474;2022-07-29T14:36:14;12.00;;;11.20;;
25932;SDS011;13731;51.166;4.474;2022-07-29T14:38:40;15.73;;;14.77;;
25932;SDS011;13731;51.166;4.474;2022-07-29T14:41:07;12.65;;;11.73;;
25932;SDS011;13731;51.166;4.474;2022-07-29T14:43:33;10.88;;;10.10;;
25932;SDS011;13731;51.166;4.474;2022-07-29T14:46:00;14.85;;;14.05;;
25932;SDS011;13731;51.166;4.474;2022-07-29T14:48:26;12.63;;;12.02;;
25932;SDS011;13731;51.166;4.474;2022-07-29T14:50:52;13.48;;;12.65;;
25932;SDS011;13731;51.166;4.474;2022-07-29T14:53:19;11.93;;;11.25;;
25932;SDS011;13731;51.166;4.474;2022-07-29T14:55:45;10.10;;;9.40;;
25932;SDS011;13731;51.166;4.474;2022-07-29T14:58:11;9.35;;;8.75;;
25932;SDS011;13731;51.166;4.474;2022-07-29T15:00:37;14.45;;;13.45;;
25932;SDS011;13731;51.166;4.474;2022-07-29T15:03:03;13.38;;;12.45;;
25932;SDS011;13731;51.166;4.474;2022-07-29T15:05:29;14.60;;;13.15;;
25932;SDS011;13731;51.166;4.474;2022-07-29T15:07:56;12.43;;;11.27;;
25932;SDS011;13731;51.166;4.474;2022-07-29T15:10:22;11.68;;;10.98;;
25932;SDS011;13731;51.166;4.474;2022-07-29T15:12:47;12.20;;;11.38;;
25932;SDS011;13731;51.166;4.474;2022-07-29T15:15:13;11.23;;;10.55;;
25932;SDS011;13731;51.166;4.474;2022-07-29T15:17:39;14.93;;;14.00;;
25932;SDS011;13731;51.166;4.474;2022-07-29T15:20:05;12.05;;;11.13;;
25932;SDS011;13731;51.166;4.474;2022-07-29T15:22:31;12.38;;;11.57;;
25932;SDS011;13731;51.166;4.474;2022-07-29T15:24:57;9.65;;;8.98;;
25932;SDS011;13731;51.166;4.474;2022-07-29T15:27:23;9.55;;;8.70;;
25932;SDS011;13731;51.166;4.474;2022-07-29T15:29:49;8.48;;;7.60;;
25932;SDS011;13731;51.166;4.474;2022-07-29T15:32:14;8.15;;;7.35;;
25932;SDS011;13731;51.166;4.474;2022-07-29T15:34:40;8.40;;;6.43;;
25932;SDS011;13731;51.166;4.474;2022-07-29T15:37:06;6.35;;;5.75;;
25932;SDS011;13731;51.166;4.474;2022-07-29T15:39:32;6.10;;;5.50;;
25932;SDS011;13731;51.166;4.474;2022-07-29T15:41:58;8.63;;;6.15;;
25932;SDS011;13731;51.166;4.474;2022-07-29T15:44:25;6.28;;;5.88;;
25932;SDS011;13731;51.166;4.474;2022-07-29T15:46:50;6.20;;;5.70;;
25932;SDS011;13731;51.166;4.474;2022-07-29T15:49:33;6.63;;;6.03;;
25932;SDS011;13731;51.166;4.474;2022-07-29T15:52:06;5.65;;;5.25;;
25932;SDS011;13731;51.166;4.474;2022-07-29T15:54:38;7.97;;;5.97;;
25932;SDS011;13731;51.166;4.474;2022-07-29T15:57:07;7.95;;;6.22;;
25932;SDS011;13731;51.166;4.474;2022-07-29T15:59:33;5.32;;;4.93;;